Time;durP1;ratioP1;P1;durP2;ratioP2;P2;SDS_P1;SDS_P2;PMS_P1;PMS_P2;Temp;Humidity;BMP_temperature;BMP_pressure;BME280_temperature;BME280_humidity;BME280_pressure;Samples;Min_cycle;Max_cycle;Signal;HPM_P1;HPM_P2
2022/11/29 00:01:57;;;;;;;108.55;43.97;;;4.40;99.90;;;;;;5029185;28;20075;-74
2022/11/29 00:04:23;;;;;;;102.88;42.53;;;4.50;99.90;;;;;;5031032;28;20034;-73
2022/11/29 00:06:48;;;;;;;105.20;44.00;;;4.50;99.90;;;;;;5031166;28;20021;-74
2022/11/29 00:09:14;;;;;;;104.28;42.10;;;4.40;99.90;;;;;;5034184;28;20028;-74
2022/11/29 00:14:26;;;;;;;119.05;45.13;;;4.40;99.90;;;;;;5033701;28;20043;-74
2022/11/29 00:17:01;;;;;;;98.90;42.50;;;4.50;99.90;;;;;;5034508;28;20392;-74
2022/11/29 00:19:28;;;;;;;112.50;46.55;;;4.50;99.90;;;;;;5032954;28;20037;-74
2022/11/29 00:21:53;;;;;;;106.60;44.83;;;4.50;99.90;;;;;;5032042;28;20040;-73
2022/11/29 00:24:19;;;;;;;111.15;42.47;;;4.50;99.90;;;;;;5034653;28;20029;-74
2022/11/29 00:26:44;;;;;;;117.93;45.78;;;4.50;99.90;;;;;;5034022;28;20366;-74
2022/11/29 00:29:11;;;;;;;112.93;45.22;;;4.50;99.90;;;;;;5033854;28;20397;-73
2022/11/29 00:31:38;;;;;;;111.05;45.03;;;4.50;99.90;;;;;;5033831;28;20036;-74
2022/11/29 00:34:05;;;;;;;116.43;46.40;;;4.50;99.90;;;;;;5033979;28;20025;-74
2022/11/29 00:36:35;;;;;;;112.80;46.92;;;4.50;99.90;;;;;;5033427;28;20388;-74
2022/11/29 00:39:01;;;;;;;120.50;47.40;;;4.50;99.90;;;;;;5028755;28;20054;-73
2022/11/29 00:41:27;;;;;;;110.35;46.40;;;4.50;99.90;;;;;;5014544;28;20046;-74
2022/11/29 00:43:52;;;;;;;106.10;45.97;;;4.50;99.90;;;;;;5026326;28;20053;-73
2022/11/29 00:46:18;;;;;;;101.70;43.50;;;4.50;99.90;;;;;;5033673;28;20033;-73
2022/11/29 00:48:44;;;;;;;115.13;43.28;;;4.50;99.90;;;;;;5033246;28;20025;-73
2022/11/29 00:51:09;;;;;;;112.18;46.63;;;4.50;99.90;;;;;;5033550;28;20026;-74
2022/11/29 00:53:35;;;;;;;96.05;42.85;;;4.50;99.90;;;;;;5033926;28;20025;-73
2022/11/29 00:56:02;;;;;;;108.03;42.47;;;4.50;99.90;;;;;;5033836;28;20021;-74
2022/11/29 00:58:28;;;;;;;112.60;44.40;;;4.50;99.90;;;;;;5028328;28;20478;-73
2022/11/29 01:00:54;;;;;;;103.35;43.03;;;4.50;99.90;;;;;;5013976;28;20396;-74
2022/11/29 01:03:21;;;;;;;117.97;45.42;;;4.50;99.90;;;;;;5022710;28;20026;-74
2022/11/29 01:05:47;;;;;;;105.20;43.88;;;4.50;99.90;;;;;;5031512;28;20029;-73
2022/11/29 01:08:13;;;;;;;124.63;48.35;;;4.50;99.90;;;;;;5033398;28;20087;-74
2022/11/29 01:10:39;;;;;;;114.68;44.33;;;4.50;99.90;;;;;;5032844;28;20025;-73
2022/11/29 01:13:05;;;;;;;115.47;46.17;;;4.60;99.90;;;;;;5033217;28;20028;-74
2022/11/29 01:15:31;;;;;;;115.18;45.85;;;4.50;99.90;;;;;;5036256;28;20025;-74
2022/11/29 01:17:56;;;;;;;120.47;46.75;;;4.50;99.90;;;;;;5025392;28;20026;-73
2022/11/29 01:20:22;;;;;;;105.07;44.03;;;4.50;99.90;;;;;;5017220;28;20030;-73
2022/11/29 01:22:48;;;;;;;119.57;48.42;;;4.50;99.90;;;;;;5023896;28;20048;-73
2022/11/29 01:25:13;;;;;;;125.28;48.63;;;4.50;99.90;;;;;;5037447;28;20432;-74
2022/11/29 01:27:40;;;;;;;126.55;47.08;;;4.50;99.90;;;;;;5034917;28;20049;-73
2022/11/29 01:30:07;;;;;;;117.35;47.13;;;4.50;99.90;;;;;;5017763;28;20021;-73
2022/11/29 01:32:33;;;;;;;112.32;47.90;;;4.50;99.90;;;;;;5017439;28;20125;-73
2022/11/29 01:34:58;;;;;;;111.03;47.50;;;4.50;99.90;;;;;;5032149;28;20112;-73
2022/11/29 01:37:24;;;;;;;119.53;47.03;;;4.50;99.90;;;;;;5036525;28;20104;-74
2022/11/29 01:39:49;;;;;;;112.97;47.33;;;4.50;99.90;;;;;;5036846;28;20400;-74
2022/11/29 01:42:15;;;;;;;117.35;49.13;;;4.50;99.90;;;;;;5036895;28;20033;-74
2022/11/29 01:44:44;;;;;;;110.85;46.97;;;4.50;99.90;;;;;;5030645;28;20022;-73
2022/11/29 01:47:10;;;;;;;121.90;47.90;;;4.50;99.90;;;;;;5017562;28;20076;-74
2022/11/29 01:49:45;;;;;;;126.32;48.95;;;4.50;99.90;;;;;;5018708;28;20026;-73
2022/11/29 01:52:25;;;;;;;121.13;49.00;;;4.50;99.90;;;;;;5016978;28;20033;-74
2022/11/29 01:55:00;;;;;;;125.97;49.35;;;4.50;99.90;;;;;;5017042;28;20030;-74
2022/11/29 01:57:26;;;;;;;112.22;47.92;;;4.50;99.90;;;;;;5016643;28;20034;-72
2022/11/29 01:59:59;;;;;;;114.75;49.45;;;4.50;99.90;;;;;;5022413;28;20057;-73
2022/11/29 02:02:43;;;;;;;112.88;49.05;;;4.50;99.90;;;;;;5022129;28;20077;-74
2022/11/29 02:05:11;;;;;;;129.18;50.78;;;4.50;99.90;;;;;;5016929;28;20040;-73
2022/11/29 02:07:37;;;;;;;127.22;51.00;;;4.50;99.90;;;;;;5035476;28;20040;-74
2022/11/29 02:10:03;;;;;;;131.05;50.53;;;4.50;99.90;;;;;;5036742;28;20030;-74
2022/11/29 02:12:44;;;;;;;131.52;52.80;;;4.50;99.90;;;;;;5036157;28;20025;-74
2022/11/29 02:15:40;;;;;;;128.98;49.65;;;4.50;99.90;;;;;;5036913;28;20026;-73
2022/11/29 02:18:10;;;;;;;126.82;51.65;;;4.50;99.90;;;;;;5036513;28;20109;-73
2022/11/29 02:20:54;;;;;;;132.13;52.97;;;4.50;99.90;;;;;;5036239;28;20504;-74
2022/11/29 02:23:50;;;;;;;119.80;51.30;;;4.50;99.90;;;;;;5031398;28;20037;-73
2022/11/29 02:26:49;;;;;;;128.23;51.00;;;4.50;99.90;;;;;;5015715;28;20393;-73
2022/11/29 02:29:52;;;;;;;131.07;54.55;;;4.50;99.90;;;;;;5019729;28;20022;-73
2022/11/29 02:32:32;;;;;;;125.35;53.45;;;4.50;99.90;;;;;;5036351;28;20408;-73
2022/11/29 02:35:26;;;;;;;127.60;52.05;;;4.50;99.90;;;;;;5024872;28;20481;-73
2022/11/29 02:38:22;;;;;;;129.70;51.88;;;4.50;99.90;;;;;;5014411;28;20160;-73
2022/11/29 02:41:16;;;;;;;115.60;48.42;;;4.50;99.90;;;;;;5030670;28;20040;-73
2022/11/29 02:44:09;;;;;;;126.22;54.67;;;4.50;99.90;;;;;;5036101;28;20048;-73
2022/11/29 02:47:12;;;;;;;120.30;51.38;;;4.50;99.90;;;;;;5035681;28;20087;-74
2022/11/29 02:49:59;;;;;;;129.65;51.40;;;4.50;99.90;;;;;;5035432;28;20065;-73
2022/11/29 02:52:49;;;;;;;113.15;49.25;;;4.50;99.90;;;;;;5035713;28;20485;-73
2022/11/29 02:55:23;;;;;;;129.43;52.80;;;4.50;99.90;;;;;;5035686;28;20377;-73
2022/11/29 02:58:06;;;;;;;129.10;52.72;;;4.50;99.90;;;;;;5033948;28;20030;-73
2022/11/29 03:00:36;;;;;;;132.52;51.63;;;4.50;99.90;;;;;;5026217;28;20053;-73
2022/11/29 03:03:32;;;;;;;125.20;54.50;;;4.50;99.90;;;;;;5030430;28;20017;-73
2022/11/29 03:06:11;;;;;;;117.22;51.80;;;4.50;99.90;;;;;;5032299;28;20111;-73
2022/11/29 03:08:58;;;;;;;128.73;52.97;;;4.50;99.90;;;;;;5035963;28;20466;-73
2022/11/29 03:11:35;;;;;;;124.47;52.47;;;4.50;99.90;;;;;;5035472;28;20036;-73
2022/11/29 03:14:23;;;;;;;136.00;53.55;;;4.50;99.90;;;;;;5034883;28;20036;-73
2022/11/29 03:17:08;;;;;;;130.02;52.15;;;4.50;99.90;;;;;;5033745;28;20022;-73
2022/11/29 03:19:38;;;;;;;130.63;54.17;;;4.50;99.90;;;;;;5035389;28;20030;-74
2022/11/29 03:22:20;;;;;;;119.97;51.40;;;4.50;99.90;;;;;;5031486;28;20110;-73
2022/11/29 03:24:51;;;;;;;130.98;52.47;;;4.50;99.90;;;;;;5034706;28;20029;-74
2022/11/29 03:27:34;;;;;;;124.82;53.47;;;4.50;99.90;;;;;;5031775;28;20037;-73
2022/11/29 03:30:06;;;;;;;125.28;54.55;;;4.40;99.90;;;;;;5015585;28;20026;-73
2022/11/29 03:32:57;;;;;;;127.95;52.65;;;4.40;99.90;;;;;;5015131;28;20034;-73
2022/11/29 03:35:33;;;;;;;134.05;55.47;;;4.40;99.90;;;;;;5015231;28;20061;-74
2022/11/29 03:38:37;;;;;;;138.10;58.38;;;4.40;99.90;;;;;;5014437;28;20069;-73
2022/11/29 03:41:18;;;;;;;126.78;54.47;;;4.40;99.90;;;;;;5015286;28;20064;-73
2022/11/29 03:44:11;;;;;;;134.40;56.40;;;4.40;99.90;;;;;;5016309;28;20053;-73
2022/11/29 03:46:41;;;;;;;129.93;53.72;;;4.40;99.90;;;;;;5034414;28;20140;-73
2022/11/29 03:49:15;;;;;;;137.77;55.45;;;4.40;99.90;;;;;;5034673;28;20029;-74
2022/11/29 03:51:51;;;;;;;131.50;54.83;;;4.40;99.90;;;;;;5034679;28;20029;-74
2022/11/29 03:54:25;;;;;;;125.53;55.72;;;4.40;99.90;;;;;;5034216;28;20714;-73
2022/11/29 03:56:51;;;;;;;135.85;55.65;;;4.40;99.90;;;;;;5034577;28;20096;-74
2022/11/29 03:59:41;;;;;;;141.35;56.40;;;4.40;99.90;;;;;;5034440;28;20064;-74
2022/11/29 04:02:18;;;;;;;134.93;54.47;;;4.40;99.90;;;;;;5034386;28;20022;-73
2022/11/29 04:05:07;;;;;;;128.02;54.28;;;4.40;99.90;;;;;;5033153;28;20026;-73
2022/11/29 04:07:43;;;;;;;132.15;54.50;;;4.40;99.90;;;;;;5033971;28;20036;-73
2022/11/29 04:10:27;;;;;;;137.20;56.17;;;4.40;99.90;;;;;;5030722;28;20093;-73
2022/11/29 04:12:53;;;;;;;;;;;4.40;99.90;;;;;;5032302;28;20503;-73
2022/11/29 04:15:41;;;;;;;137.20;54.55;;;4.40;99.90;;;;;;5025437;28;19909;-73
2022/11/29 04:18:34;;;;;;;139.95;55.92;;;4.30;99.90;;;;;;5029520;28;20104;-73
2022/11/29 04:21:51;;;;;;;128.18;53.55;;;4.30;99.90;;;;;;5013678;28;20069;-73
2022/11/29 04:24:50;;;;;;;128.65;53.47;;;4.40;99.90;;;;;;4991759;28;20066;-73
2022/11/29 04:27:40;;;;;;;126.15;52.10;;;4.40;99.90;;;;;;5031795;28;20496;-73
2022/11/29 04:30:08;;;;;;;132.57;52.28;;;4.40;99.90;;;;;;5033968;28;20486;-73
2022/11/29 04:33:01;;;;;;;126.07;53.10;;;4.40;99.90;;;;;;5033201;28;20022;-74
2022/11/29 04:35:54;;;;;;;125.32;54.22;;;4.40;99.90;;;;;;5034269;28;20033;-74
2022/11/29 04:38:53;;;;;;;134.48;55.33;;;4.40;99.90;;;;;;5033754;28;20048;-73
2022/11/29 04:41:40;;;;;;;133.20;53.63;;;4.40;99.90;;;;;;5034013;28;20040;-74
2022/11/29 04:44:19;;;;;;;134.25;54.78;;;4.40;99.90;;;;;;5032294;28;20021;-73
2022/11/29 04:47:22;;;;;;;131.40;53.25;;;4.40;99.90;;;;;;5033635;28;20034;-73
2022/11/29 04:50:09;;;;;;;120.25;52.42;;;4.40;99.90;;;;;;5033342;28;20444;-74
2022/11/29 04:53:01;;;;;;;136.85;54.97;;;4.40;99.90;;;;;;5033965;28;20017;-74
2022/11/29 04:56:12;;;;;;;128.43;54.40;;;4.40;99.90;;;;;;5032276;28;20021;-74
2022/11/29 04:59:00;;;;;;;131.98;53.63;;;4.40;99.90;;;;;;5031378;28;20104;-73
2022/11/29 05:01:47;;;;;;;124.90;53.42;;;4.40;99.90;;;;;;5033054;28;20029;-73
2022/11/29 05:04:26;;;;;;;134.77;53.60;;;4.40;99.90;;;;;;5029872;28;20040;-73
2022/11/29 05:07:03;;;;;;;134.25;57.05;;;4.40;99.90;;;;;;5030666;28;20385;-73
2022/11/29 05:09:50;;;;;;;135.35;55.47;;;4.40;99.90;;;;;;5033757;28;20030;-73
2022/11/29 05:12:36;;;;;;;128.85;54.15;;;4.40;99.90;;;;;;5024095;28;20033;-73
2022/11/29 05:15:39;;;;;;;136.32;55.17;;;4.40;99.90;;;;;;5013846;28;20029;-74
2022/11/29 05:18:19;;;;;;;123.15;52.83;;;4.40;99.90;;;;;;5020434;28;20022;-74
2022/11/29 05:21:02;;;;;;;144.43;55.28;;;4.30;99.90;;;;;;5080010;23;20512;-69
2022/11/29 05:23:42;;;;;;;136.15;54.50;;;4.40;99.90;;;;;;5010439;28;20030;-70
2022/11/29 05:26:15;;;;;;;128.98;55.67;;;4.40;99.90;;;;;;5013616;28;20041;-71
2022/11/29 05:28:50;;;;;;;140.80;55.83;;;4.40;99.90;;;;;;5011733;28;20030;-70
2022/11/29 05:31:40;;;;;;;143.30;56.17;;;4.30;99.90;;;;;;5013750;28;20100;-70
2022/11/29 05:34:37;;;;;;;130.07;54.28;;;4.40;99.90;;;;;;5008732;28;20500;-70
2022/11/29 05:37:06;;;;;;;130.05;55.42;;;4.40;99.90;;;;;;4994078;28;20025;-70
2022/11/29 05:39:39;;;;;;;134.30;55.45;;;4.30;99.90;;;;;;4993690;28;20409;-70
2022/11/29 05:42:46;;;;;;;136.35;56.60;;;4.30;99.90;;;;;;4992987;28;20026;-70
2022/11/29 05:45:28;;;;;;;142.60;57.72;;;4.30;99.90;;;;;;5000823;28;20377;-70
2022/11/29 05:48:03;;;;;;;134.70;54.95;;;4.40;99.90;;;;;;4995499;28;20022;-70
2022/11/29 05:50:32;;;;;;;143.73;58.53;;;4.40;99.90;;;;;;5009413;28;20546;-70
2022/11/29 05:53:18;;;;;;;135.30;57.47;;;4.40;99.90;;;;;;4993301;28;20027;-70
2022/11/29 05:55:54;;;;;;;134.10;57.58;;;4.40;99.90;;;;;;4993113;28;20186;-70
2022/11/29 05:58:36;;;;;;;151.05;59.63;;;4.40;99.90;;;;;;5012946;28;20375;-70
2022/11/29 06:01:33;;;;;;;135.98;53.08;;;4.40;99.90;;;;;;5012952;28;20105;-70
2022/11/29 06:04:15;;;;;;;131.80;54.20;;;4.30;99.90;;;;;;5016825;28;20068;-70
2022/11/29 06:07:06;;;;;;;141.00;55.75;;;4.40;99.90;;;;;;5013317;28;20026;-70
2022/11/29 06:09:40;;;;;;;146.73;55.00;;;4.40;99.90;;;;;;5016017;28;20022;-70
2022/11/29 06:12:13;;;;;;;134.90;55.83;;;4.40;99.90;;;;;;5003861;28;20029;-70
2022/11/29 06:15:03;;;;;;;135.70;54.15;;;4.40;99.90;;;;;;4979395;28;20058;-70
2022/11/29 06:18:15;;;;;;;122.75;52.05;;;4.40;99.90;;;;;;5007771;28;20032;-70
2022/11/29 06:21:16;;;;;;;135.48;52.95;;;4.40;99.90;;;;;;4955915;29;20034;-70
2022/11/29 06:24:04;;;;;;;132.73;55.67;;;4.40;99.90;;;;;;4955724;29;20039;-70
2022/11/29 06:27:07;;;;;;;138.57;55.60;;;4.40;99.90;;;;;;5011305;28;20029;-70
2022/11/29 06:29:55;;;;;;;139.77;54.13;;;4.40;99.90;;;;;;5016177;28;20072;-69
2022/11/29 06:32:50;;;;;;;139.57;55.72;;;4.50;99.90;;;;;;5015053;28;20541;-70
2022/11/29 06:35:28;;;;;;;132.65;54.42;;;4.50;99.90;;;;;;5015999;28;20100;-70
2022/11/29 06:38:01;;;;;;;125.88;55.05;;;4.50;99.90;;;;;;5016273;28;20103;-70
2022/11/29 06:40:27;;;;;;;135.68;53.88;;;4.50;99.90;;;;;;5002334;28;20035;-70
2022/11/29 06:42:52;;;;;;;138.48;57.40;;;4.50;99.90;;;;;;4996258;28;20375;-70
2022/11/29 06:45:18;;;;;;;134.18;56.58;;;4.50;99.90;;;;;;5005964;28;20076;-70
2022/11/29 06:47:50;;;;;;;133.02;57.60;;;4.50;99.90;;;;;;5016044;28;20030;-70
2022/11/29 06:50:46;;;;;;;146.95;59.63;;;4.40;99.90;;;;;;5014463;28;20026;-70
2022/11/29 06:53:23;;;;;;;145.63;56.55;;;4.50;99.90;;;;;;4996120;28;20065;-70
2022/11/29 06:56:21;;;;;;;152.15;59.05;;;4.40;99.90;;;;;;4999936;28;20022;-70
2022/11/29 06:59:03;;;;;;;142.55;59.30;;;4.40;99.90;;;;;;5001560;28;20038;-70
2022/11/29 07:01:44;;;;;;;143.43;58.38;;;4.40;99.90;;;;;;5014834;28;20048;-70
2022/11/29 07:04:50;;;;;;;137.50;58.63;;;4.40;99.90;;;;;;5015094;28;20026;-70
2022/11/29 07:07:21;;;;;;;150.55;59.38;;;4.40;99.90;;;;;;4997949;28;20023;-70
2022/11/29 07:09:50;;;;;;;140.05;58.85;;;4.40;99.90;;;;;;5014314;28;20048;-70
2022/11/29 07:12:16;;;;;;;151.52;60.83;;;4.40;99.90;;;;;;5014591;28;20029;-70
2022/11/29 07:14:42;;;;;;;154.30;62.45;;;4.40;99.90;;;;;;5000697;28;20022;-70
2022/11/29 07:17:36;;;;;;;149.10;62.90;;;4.40;99.90;;;;;;4995896;28;20022;-70
2022/11/29 07:20:16;;;;;;;162.57;63.42;;;4.40;99.90;;;;;;5008023;28;20030;-70
2022/11/29 07:22:55;;;;;;;152.82;61.65;;;4.40;99.90;;;;;;5014680;28;20049;-70
2022/11/29 07:25:41;;;;;;;161.07;62.20;;;4.30;99.90;;;;;;4988036;28;20052;-70
2022/11/29 07:28:37;;;;;;;145.52;63.08;;;4.40;99.90;;;;;;4995670;28;20057;-70
2022/11/29 07:31:17;;;;;;;138.48;58.00;;;4.40;99.90;;;;;;4997872;28;20026;-70
2022/11/29 07:33:56;;;;;;;135.68;60.80;;;4.40;99.90;;;;;;4995630;28;20034;-70
2022/11/29 07:36:54;;;;;;;147.63;61.08;;;4.40;99.90;;;;;;5007984;28;20105;-70
2022/11/29 07:39:19;;;;;;;132.98;58.72;;;4.40;99.90;;;;;;5014658;28;20033;-69
2022/11/29 07:42:01;;;;;;;142.77;58.50;;;4.30;99.90;;;;;;5006510;28;20505;-69
2022/11/29 07:44:36;;;;;;;137.32;60.17;;;4.40;99.90;;;;;;4995428;28;20073;-69
2022/11/29 07:47:02;;;;;;;139.38;57.97;;;4.40;99.90;;;;;;5001364;28;20014;-70
2022/11/29 07:49:27;;;;;;;146.05;63.58;;;4.40;99.90;;;;;;5014725;28;20496;-69
2022/11/29 07:51:54;;;;;;;131.93;60.88;;;4.40;99.90;;;;;;5031926;23;20060;-69
2022/11/29 07:54:20;;;;;;;146.85;61.47;;;4.40;99.90;;;;;;5034381;28;20021;-69
2022/11/29 07:56:45;;;;;;;132.77;61.70;;;4.40;99.90;;;;;;5033867;28;20139;-69
2022/11/29 07:59:11;;;;;;;141.98;59.70;;;4.50;99.90;;;;;;5034212;28;20021;-70
2022/11/29 08:01:38;;;;;;;116.90;53.90;;;4.50;99.90;;;;;;5032984;28;20025;-69
2022/11/29 08:04:05;;;;;;;130.13;59.40;;;4.50;99.90;;;;;;5034122;28;20100;-70
2022/11/29 08:06:30;;;;;;;136.35;58.75;;;4.50;99.90;;;;;;5034480;28;20029;-70
2022/11/29 08:08:57;;;;;;;142.57;61.25;;;4.50;99.90;;;;;;5031336;28;20496;-70
2022/11/29 08:11:23;;;;;;;130.73;58.90;;;4.50;99.90;;;;;;5020483;28;20033;-69
2022/11/29 08:13:48;;;;;;;138.77;61.47;;;4.50;99.90;;;;;;5033963;28;20113;-69
2022/11/29 08:16:18;;;;;;;128.18;58.13;;;4.60;99.90;;;;;;5026776;28;20031;-69
2022/11/29 08:18:43;;;;;;;132.85;61.13;;;4.60;99.90;;;;;;5013693;28;20113;-69
2022/11/29 08:21:09;;;;;;;136.50;61.63;;;4.60;99.90;;;;;;5014869;28;20460;-69
2022/11/29 08:23:35;;;;;;;139.15;62.55;;;4.60;99.90;;;;;;5033983;28;20030;-69
2022/11/29 08:26:02;;;;;;;149.88;63.30;;;4.60;99.90;;;;;;5024515;28;20541;-69
2022/11/29 08:28:28;;;;;;;141.88;61.53;;;4.70;99.90;;;;;;5033578;28;20028;-69
2022/11/29 08:31:05;;;;;;;139.70;61.05;;;4.70;99.90;;;;;;5026896;28;20034;-70
2022/11/29 08:33:34;;;;;;;129.80;60.03;;;4.70;99.90;;;;;;5032898;28;20037;-70
2022/11/29 08:36:12;;;;;;;133.70;60.95;;;4.70;99.90;;;;;;5033614;28;20029;-70
2022/11/29 08:38:39;;;;;;;125.70;59.85;;;4.70;99.90;;;;;;5032244;28;20445;-70
2022/11/29 08:41:07;;;;;;;132.65;61.67;;;4.70;99.90;;;;;;5033450;28;20104;-70
2022/11/29 08:43:33;;;;;;;141.27;63.78;;;4.80;99.90;;;;;;5033843;28;20033;-69
2022/11/29 08:45:59;;;;;;;124.10;57.20;;;4.80;99.90;;;;;;5032718;28;20083;-69
2022/11/29 08:48:25;;;;;;;148.93;65.53;;;4.80;99.90;;;;;;5033669;28;20538;-69
2022/11/29 08:50:52;;;;;;;139.18;63.15;;;4.80;99.90;;;;;;5033132;28;20029;-69
2022/11/29 08:56:03;;;;;;;129.88;61.85;;;4.80;99.90;;;;;;5033638;28;20409;-69
2022/11/29 08:58:28;;;;;;;146.13;63.40;;;4.90;99.90;;;;;;5032852;28;20033;-69
2022/11/29 09:00:54;;;;;;;137.20;61.95;;;4.80;99.90;;;;;;5033342;28;20044;-69
2022/11/29 09:06:10;;;;;;;144.55;64.15;;;4.90;99.90;;;;;;5015118;28;20032;-70
2022/11/29 09:08:36;;;;;;;142.30;64.72;;;4.90;99.90;;;;;;5032916;28;20494;-69
2022/11/29 09:11:28;;;;;;;137.38;62.22;;;4.90;99.90;;;;;;5033084;28;20096;-69
2022/11/29 09:13:57;;;;;;;124.00;58.75;;;4.90;99.90;;;;;;5033443;28;20493;-70
2022/11/29 09:16:25;;;;;;;138.57;63.38;;;4.90;99.90;;;;;;5033218;28;20159;-69
2022/11/29 09:18:53;;;;;;;135.63;60.45;;;5.00;99.90;;;;;;5032523;28;20025;-70
2022/11/29 09:21:19;;;;;;;142.20;63.05;;;5.00;99.90;;;;;;5031612;28;20033;-70
2022/11/29 09:23:45;;;;;;;131.27;59.80;;;5.00;99.90;;;;;;5030943;28;20544;-69
2022/11/29 09:26:17;;;;;;;143.40;65.85;;;5.00;99.90;;;;;;5031007;28;20030;-69
2022/11/29 09:28:43;;;;;;;136.43;65.03;;;5.00;99.90;;;;;;5033856;28;20497;-69
2022/11/29 09:31:11;;;;;;;148.00;67.25;;;5.00;99.90;;;;;;5020913;28;20112;-69
2022/11/29 09:33:40;;;;;;;142.27;64.60;;;5.00;99.90;;;;;;5013177;28;20018;-69
2022/11/29 09:36:08;;;;;;;159.52;65.85;;;5.10;99.90;;;;;;5015202;28;20080;-69
2022/11/29 09:38:34;;;;;;;130.18;59.78;;;5.10;99.90;;;;;;5017434;28;20363;-70
2022/11/29 09:41:26;;;;;;;139.95;64.45;;;5.10;99.90;;;;;;5023179;28;20029;-70
2022/11/29 09:44:23;;;;;;;137.93;61.80;;;5.10;99.90;;;;;;5037171;28;20029;-70
2022/11/29 09:47:00;;;;;;;126.28;58.60;;;5.20;99.90;;;;;;5036937;28;20053;-70
2022/11/29 09:49:37;;;;;;;127.65;59.80;;;5.10;99.90;;;;;;5037033;28;20030;-69
2022/11/29 09:52:25;;;;;;;121.75;58.97;;;5.20;99.90;;;;;;5036440;28;20507;-69
2022/11/29 09:55:17;;;;;;;131.05;60.33;;;5.20;99.90;;;;;;5006589;28;20041;-69
2022/11/29 09:57:43;;;;;;;127.97;58.10;;;5.20;99.90;;;;;;5036368;28;20400;-69
2022/11/29 10:00:16;;;;;;;124.45;60.00;;;5.20;99.90;;;;;;5029973;28;20025;-69
2022/11/29 10:02:56;;;;;;;130.00;58.58;;;5.30;99.90;;;;;;5036465;28;20378;-70
2022/11/29 10:05:27;;;;;;;128.63;59.58;;;5.30;99.90;;;;;;5036786;28;20039;-70
2022/11/29 10:08:12;;;;;;;127.97;59.38;;;5.30;99.90;;;;;;5035884;28;20021;-70
2022/11/29 10:10:46;;;;;;;117.47;57.22;;;5.30;99.90;;;;;;5034292;28;20018;-70
2022/11/29 10:13:25;;;;;;;119.97;56.08;;;5.40;99.90;;;;;;5036335;28;20072;-70
2022/11/29 10:15:58;;;;;;;118.68;55.03;;;5.30;99.90;;;;;;5035796;28;20121;-70
2022/11/29 10:18:47;;;;;;;119.25;56.55;;;5.40;99.90;;;;;;5036499;28;20385;-69
2022/11/29 10:21:27;;;;;;;115.10;56.33;;;5.40;99.90;;;;;;5036039;28;20034;-70
2022/11/29 10:23:58;;;;;;;115.10;53.08;;;5.50;99.90;;;;;;5016535;28;20030;-70
2022/11/29 10:26:23;;;;;;;111.28;53.40;;;5.50;99.90;;;;;;5015579;28;20022;-70
2022/11/29 10:28:50;;;;;;;107.35;52.55;;;5.40;99.90;;;;;;5015977;28;20026;-70
2022/11/29 10:31:15;;;;;;;111.32;52.67;;;5.40;99.90;;;;;;5016008;28;20478;-70
2022/11/29 10:33:43;;;;;;;110.65;55.35;;;5.40;99.90;;;;;;5016149;28;20014;-70
2022/11/29 10:36:48;;;;;;;111.05;52.70;;;5.50;99.90;;;;;;5023329;28;20116;-70
2022/11/29 10:39:28;;;;;;;103.22;52.15;;;5.50;99.90;;;;;;5018089;28;20072;-70
2022/11/29 10:41:59;;;;;;;111.15;50.78;;;5.60;99.90;;;;;;5034778;28;20030;-70
2022/11/29 10:44:25;;;;;;;111.40;52.05;;;5.60;99.90;;;;;;5035905;28;20025;-70
2022/11/29 10:46:52;;;;;;;105.85;54.10;;;5.60;99.90;;;;;;5027098;28;20030;-70
2022/11/29 10:49:20;;;;;;;108.68;51.63;;;5.70;99.90;;;;;;5015755;28;20022;-70
2022/11/29 10:51:46;;;;;;;106.93;51.28;;;5.70;99.90;;;;;;5017315;28;20486;-70
2022/11/29 10:54:31;;;;;;;118.70;54.75;;;5.70;99.90;;;;;;5035652;28;20062;-70
2022/11/29 10:56:59;;;;;;;114.30;55.05;;;5.70;99.90;;;;;;5033524;28;20416;-70
2022/11/29 10:59:27;;;;;;;117.63;54.85;;;5.70;99.90;;;;;;5034917;28;20032;-70
2022/11/29 11:01:54;;;;;;;109.72;54.25;;;5.70;99.90;;;;;;5024206;28;20079;-70
2022/11/29 11:04:41;;;;;;;110.93;56.95;;;5.60;99.90;;;;;;5016072;28;20022;-70
2022/11/29 11:07:18;;;;;;;112.50;55.60;;;5.60;99.90;;;;;;5015578;28;20022;-70
2022/11/29 11:09:49;;;;;;;113.78;56.33;;;5.70;99.90;;;;;;5014306;28;20029;-70
2022/11/29 11:12:15;;;;;;;112.95;55.78;;;5.60;99.90;;;;;;5014965;28;20485;-70
2022/11/29 11:14:42;;;;;;;106.28;53.00;;;5.70;99.90;;;;;;5024748;28;20042;-70
2022/11/29 11:17:15;;;;;;;109.25;55.42;;;5.60;99.90;;;;;;5035309;28;20017;-70
2022/11/29 11:19:41;;;;;;;111.25;53.95;;;5.60;99.90;;;;;;5031559;28;20029;-70
2022/11/29 11:22:20;;;;;;;110.75;52.40;;;5.60;99.90;;;;;;5048229;23;20045;-68
2022/11/29 11:24:45;;;;;;;103.18;52.28;;;5.70;99.90;;;;;;5035543;28;20072;-68
2022/11/29 11:27:11;;;;;;;108.05;54.25;;;5.70;99.90;;;;;;5032370;28;20017;-68
2022/11/29 11:29:39;;;;;;;109.70;55.17;;;5.70;99.90;;;;;;5034579;28;20037;-68
2022/11/29 11:32:15;;;;;;;108.32;56.08;;;5.80;99.90;;;;;;5033949;28;20041;-68
2022/11/29 11:34:59;;;;;;;105.95;52.40;;;5.80;99.90;;;;;;5015559;28;20111;-68
2022/11/29 11:37:29;;;;;;;107.25;53.05;;;5.80;99.90;;;;;;5014813;28;20436;-68
2022/11/29 11:39:58;;;;;;;108.80;54.88;;;5.80;99.90;;;;;;5032283;28;20033;-68
2022/11/29 11:42:37;;;;;;;109.65;55.58;;;5.80;99.90;;;;;;5035223;28;20049;-68
2022/11/29 11:45:10;;;;;;;103.10;53.03;;;5.80;99.90;;;;;;5035026;28;20033;-68
2022/11/29 11:48:01;;;;;;;110.60;53.28;;;5.80;99.90;;;;;;5035025;28;20026;-68
2022/11/29 11:50:41;;;;;;;116.55;55.17;;;5.80;99.90;;;;;;5021513;28;20030;-68
2022/11/29 11:53:25;;;;;;;112.88;54.70;;;5.80;99.90;;;;;;5014223;28;20026;-68
2022/11/29 11:56:00;;;;;;;109.53;52.95;;;5.80;99.90;;;;;;5031172;28;20022;-68
2022/11/29 11:58:30;;;;;;;111.32;52.72;;;5.90;99.90;;;;;;5034527;28;20029;-68
2022/11/29 12:01:13;;;;;;;110.03;53.60;;;5.90;99.90;;;;;;5028121;28;20029;-68
2022/11/29 12:03:44;;;;;;;116.40;55.93;;;5.90;99.90;;;;;;5034158;28;20033;-68
2022/11/29 12:06:46;;;;;;;107.35;53.80;;;5.90;99.90;;;;;;5034259;28;20034;-68
2022/11/29 12:09:43;;;;;;;110.95;51.42;;;5.90;99.90;;;;;;5031233;28;20473;-68
2022/11/29 12:12:14;;;;;;;106.22;51.10;;;5.90;99.90;;;;;;5013408;28;20469;-68
2022/11/29 12:15:17;;;;;;;107.78;54.88;;;6.00;99.90;;;;;;5030118;28;20083;-68
2022/11/29 12:17:47;;;;;;;110.75;54.97;;;6.00;99.90;;;;;;5033947;28;20052;-68
2022/11/29 12:20:28;;;;;;;110.00;56.40;;;6.00;99.90;;;;;;5031681;28;20564;-68
2022/11/29 12:23:11;;;;;;;109.93;53.75;;;6.00;99.90;;;;;;5034197;28;20137;-68
2022/11/29 12:25:52;;;;;;;106.07;53.10;;;6.10;99.90;;;;;;5031833;28;20104;-68
2022/11/29 12:28:20;;;;;;;107.18;55.65;;;6.10;99.90;;;;;;5034114;28;20017;-68
2022/11/29 12:31:18;;;;;;;100.47;53.72;;;6.10;99.90;;;;;;5030242;28;20442;-68
2022/11/29 12:34:12;;;;;;;110.50;56.40;;;6.20;99.90;;;;;;5033901;28;20358;-68
2022/11/29 12:37:02;;;;;;;109.27;56.20;;;6.20;99.90;;;;;;5021147;28;20124;-68
2022/11/29 12:39:56;;;;;;;109.20;53.70;;;6.20;99.90;;;;;;5016913;28;20268;-68
2022/11/29 12:42:56;;;;;;;106.28;53.33;;;6.20;99.90;;;;;;5019056;28;20408;-68
2022/11/29 12:45:26;;;;;;;106.38;52.90;;;6.20;99.90;;;;;;5023080;28;20072;-68
2022/11/29 12:48:12;;;;;;;102.53;54.17;;;6.20;99.90;;;;;;5022582;28;20481;-68
2022/11/29 12:50:37;;;;;;;97.00;50.85;;;6.10;99.90;;;;;;5013514;28;20025;-68
2022/11/29 12:53:15;;;;;;;103.15;53.35;;;6.20;99.90;;;;;;5013642;28;20097;-68
2022/11/29 12:55:48;;;;;;;112.07;55.20;;;6.20;99.90;;;;;;5013783;28;20030;-68
2022/11/29 12:58:25;;;;;;;112.60;58.53;;;6.10;99.90;;;;;;5012072;28;20109;-68
2022/11/29 13:01:02;;;;;;;102.88;52.50;;;6.20;99.90;;;;;;5029261;28;20481;-68
2022/11/29 13:03:37;;;;;;;102.63;52.58;;;6.20;99.90;;;;;;5033478;28;20076;-68
2022/11/29 13:06:40;;;;;;;99.85;52.72;;;6.20;99.90;;;;;;5017284;28;20046;-68
2022/11/29 13:09:52;;;;;;;99.32;50.80;;;6.20;99.90;;;;;;5001475;28;20033;-68
2022/11/29 13:12:56;;;;;;;110.78;56.80;;;6.30;99.90;;;;;;5013656;28;20057;-68
2022/11/29 13:15:53;;;;;;;107.40;53.05;;;6.20;99.90;;;;;;4943378;28;20072;-68
2022/11/29 13:18:31;;;;;;;117.38;57.30;;;6.20;99.90;;;;;;5013937;28;20034;-68
2022/11/29 13:21:13;;;;;;;100.82;54.50;;;6.20;99.90;;;;;;5013516;28;20528;-68
2022/11/29 13:23:54;;;;;;;112.97;57.53;;;6.20;99.90;;;;;;5013347;28;20457;-68
2022/11/29 13:26:20;;;;;;;112.63;57.63;;;6.20;99.90;;;;;;5013426;28;20041;-68
2022/11/29 13:28:46;;;;;;;119.72;57.47;;;6.10;99.90;;;;;;5013637;28;20018;-68